createdAt,value
2018-05-31T00:01:56.596Z,97685
2018-05-31T00:04:26.717Z,97684
2018-05-31T00:06:56.118Z,97688
2018-05-31T00:09:25.407Z,97691
2018-05-31T00:11:54.825Z,97687
2018-05-31T00:14:24.945Z,97690
2018-05-31T00:16:54.303Z,97686
2018-05-31T00:19:23.594Z,97686
2018-05-31T00:21:52.899Z,97689
2018-05-31T00:24:22.252Z,97683
2018-05-31T00:26:52.373Z,97683
2018-05-31T00:29:21.781Z,97686
2018-05-31T00:31:51.179Z,97684
2018-05-31T00:34:21.299Z,97682
2018-05-31T00:36:51.365Z,97677
2018-05-31T00:39:20.722Z,97677
2018-05-31T00:41:50.842Z,97673
2018-05-31T00:44:20.950Z,97683
2018-05-31T00:46:50.364Z,97683
2018-05-31T00:49:20.490Z,97686
2018-05-31T00:51:49.892Z,97682
2018-05-31T00:54:20.011Z,97681
2018-05-31T00:56:50.136Z,97682
2018-05-31T00:59:19.477Z,97680
2018-05-31T01:01:48.782Z,97673
2018-05-31T01:04:18.138Z,97667
2018-05-31T01:06:48.207Z,97671
2018-05-31T01:09:17.559Z,97671
2018-05-31T01:11:47.670Z,97669
2018-05-31T01:14:17.801Z,97667
2018-05-31T01:16:47.862Z,97667
2018-05-31T01:19:17.224Z,97667
2018-05-31T01:21:47.334Z,97668
2018-05-31T01:24:17.463Z,97675
2018-05-31T01:26:47.583Z,97671
2018-05-31T01:29:17.704Z,97676
2018-05-31T01:31:47.821Z,97674
2018-05-31T01:34:17.937Z,97673
2018-05-31T01:36:48.065Z,97665
2018-05-31T01:39:19.210Z,97668
2018-05-31T01:41:49.279Z,97658
2018-05-31T01:44:18.632Z,97651
2018-05-31T01:46:48.037Z,97656
2018-05-31T01:49:17.439Z,97649
2018-05-31T01:51:47.507Z,97647
2018-05-31T01:54:16.860Z,97646
2018-05-31T01:56:46.981Z,97647
2018-05-31T01:59:17.421Z,97640
2018-05-31T02:01:47.938Z,97636
2018-05-31T02:04:18.048Z,97635
2018-05-31T02:06:47.461Z,97628
2018-05-31T02:09:16.865Z,97633
2018-05-31T02:11:46.987Z,97638
2018-05-31T02:14:17.108Z,97633
2018-05-31T02:16:47.225Z,97630
2018-05-31T02:19:17.348Z,97630
2018-05-31T02:21:47.456Z,97635
2018-05-31T02:24:16.871Z,97635
2018-05-31T02:26:46.992Z,97623
2018-05-31T02:29:17.111Z,97612
2018-05-31T02:31:46.515Z,97604
2018-05-31T02:34:16.633Z,97596
2018-05-31T02:36:46.755Z,97593
2018-05-31T02:39:16.867Z,97596
2018-05-31T02:41:47.103Z,97594
2018-05-31T02:44:17.221Z,97593
2018-05-31T02:46:47.337Z,97587
2018-05-31T02:49:17.460Z,97586
2018-05-31T02:51:47.582Z,97596
2018-05-31T02:54:17.701Z,97597
2018-05-31T02:56:47.821Z,97596
2018-05-31T02:59:17.943Z,97594
2018-05-31T03:01:48.054Z,97589
2018-05-31T03:04:17.467Z,97586
2018-05-31T03:06:47.589Z,97592
2018-05-31T03:09:16.991Z,97591
2018-05-31T03:11:47.141Z,97601
2018-05-31T03:14:16.516Z,97598
2018-05-31T03:16:46.636Z,97603
2018-05-31T03:19:16.712Z,97605
2018-05-31T03:21:46.053Z,97606
2018-05-31T03:24:15.357Z,97609
2018-05-31T03:26:45.479Z,97611
2018-05-31T03:29:15.601Z,97615
2018-05-31T03:31:45.720Z,97615
2018-05-31T03:34:15.784Z,97615
2018-05-31T03:36:45.089Z,97620
2018-05-31T03:39:14.443Z,97626
2018-05-31T03:41:44.521Z,97630
2018-05-31T03:44:13.867Z,97642
2018-05-31T03:46:43.989Z,97651
2018-05-31T03:49:13.287Z,97653
2018-05-31T03:51:43.350Z,97653
2018-05-31T03:54:12.706Z,97661
2018-05-31T03:56:42.828Z,97663
2018-05-31T03:59:12.937Z,97670
2018-05-31T04:01:42.353Z,97664
2018-05-31T04:04:12.464Z,97667
2018-05-31T04:06:42.593Z,97679
2018-05-31T04:09:13.023Z,97678
2018-05-31T04:11:43.141Z,97677
2018-05-31T04:14:13.254Z,97673
2018-05-31T04:16:43.383Z,97666
2018-05-31T04:19:13.501Z,97666
2018-05-31T04:21:43.565Z,97659
2018-05-31T04:24:12.923Z,97667
2018-05-31T04:26:43.032Z,97668
2018-05-31T04:29:13.724Z,97667
2018-05-31T04:31:43.081Z,97674
2018-05-31T04:34:13.201Z,97669
2018-05-31T04:36:43.320Z,97670
2018-05-31T04:39:13.435Z,97673
2018-05-31T04:41:43.552Z,97680
2018-05-31T04:44:13.683Z,97681
2018-05-31T04:46:43.084Z,97681
2018-05-31T04:49:13.195Z,97685
2018-05-31T04:51:42.612Z,97689
2018-05-31T04:54:12.730Z,97684
2018-05-31T04:56:42.796Z,97681
2018-05-31T04:59:12.152Z,97685
2018-05-31T05:01:42.273Z,97691
2018-05-31T05:04:12.497Z,97688
2018-05-31T05:06:42.614Z,97693
2018-05-31T05:09:12.021Z,97695
2018-05-31T05:11:42.143Z,97690
2018-05-31T05:14:11.543Z,97697
2018-05-31T05:16:41.668Z,97697
2018-05-31T05:19:11.786Z,97695
2018-05-31T05:21:41.903Z,97704
2018-05-31T05:24:12.023Z,97709
2018-05-31T05:26:42.145Z,97712
2018-05-31T05:29:12.268Z,97715
2018-05-31T05:31:41.669Z,97717
2018-05-31T05:34:11.790Z,97722
2018-05-31T05:36:42.015Z,97727
2018-05-31T05:39:11.417Z,97728
2018-05-31T05:41:41.536Z,97730
2018-05-31T05:44:11.656Z,97730
2018-05-31T05:46:41.002Z,97737
2018-05-31T05:49:10.361Z,97740
2018-05-31T05:51:40.425Z,97739
2018-05-31T05:54:09.777Z,97738
2018-05-31T05:56:39.068Z,97732
2018-05-31T05:59:08.386Z,97724
2018-05-31T06:01:38.506Z,97731
2018-05-31T06:04:08.614Z,97733
2018-05-31T06:06:38.030Z,97737
2018-05-31T06:09:08.151Z,97739
2018-05-31T06:11:38.278Z,97741
2018-05-31T06:14:07.676Z,97744
2018-05-31T06:16:37.744Z,97741
2018-05-31T06:19:07.095Z,97745
2018-05-31T06:21:37.223Z,97745
2018-05-31T06:24:07.340Z,97747
2018-05-31T06:26:37.459Z,97739
2018-05-31T06:29:07.569Z,97739
2018-05-31T06:31:37.686Z,97742
2018-05-31T06:34:07.898Z,97746
2018-05-31T06:36:37.325Z,97747
2018-05-31T06:39:06.830Z,97743
2018-05-31T06:41:36.270Z,97742
2018-05-31T06:44:05.740Z,97740
2018-05-31T06:46:35.148Z,97735
2018-05-31T06:49:04.548Z,97733
2018-05-31T06:51:33.910Z,97738
2018-05-31T06:54:03.251Z,97737
2018-05-31T06:56:32.641Z,97742
2018-05-31T06:59:01.959Z,97742
2018-05-31T07:01:31.361Z,97740
2018-05-31T07:04:00.763Z,97734
2018-05-31T07:06:30.065Z,97736
2018-05-31T07:08:59.469Z,97737
2018-05-31T07:11:28.770Z,97741
2018-05-31T07:13:58.016Z,97739
2018-05-31T07:16:27.374Z,97741
2018-05-31T07:18:57.483Z,97743
2018-05-31T07:21:26.897Z,97743
2018-05-31T07:23:56.199Z,97743
2018-05-31T07:26:25.502Z,97739
2018-05-31T07:28:55.621Z,97744
2018-05-31T07:31:24.922Z,97741
2018-05-31T07:33:54.226Z,97743
2018-05-31T07:36:23.626Z,97741
2018-05-31T07:38:52.937Z,97744
2018-05-31T07:41:23.050Z,97745
2018-05-31T07:43:52.341Z,97745
2018-05-31T07:46:21.758Z,97750
2018-05-31T07:48:51.873Z,97750
2018-05-31T07:51:21.333Z,97746
2018-05-31T07:53:50.682Z,97747
2018-05-31T07:56:20.084Z,97750
2018-05-31T07:58:49.487Z,97755
2018-05-31T08:01:19.609Z,97754
2018-05-31T08:03:49.728Z,97758
2018-05-31T08:06:19.133Z,97754
2018-05-31T08:08:48.478Z,97754
2018-05-31T08:11:17.867Z,97751
2018-05-31T08:13:47.244Z,97746
2018-05-31T08:16:17.360Z,97749
2018-05-31T08:18:46.765Z,97747
2018-05-31T08:21:16.066Z,97751
2018-05-31T08:23:45.367Z,97750
2018-05-31T08:26:15.488Z,97747
2018-05-31T08:28:44.896Z,97747
2018-05-31T08:31:15.016Z,97740
2018-05-31T08:33:45.132Z,97742
2018-05-31T08:36:14.536Z,97736
2018-05-31T08:38:44.655Z,97740
2018-05-31T08:41:14.053Z,97738
2018-05-31T08:43:43.361Z,97735
2018-05-31T08:46:12.763Z,97738
2018-05-31T08:48:42.066Z,97733
2018-05-31T08:51:11.368Z,97737
2018-05-31T08:53:40.714Z,97736
2018-05-31T08:56:10.072Z,97735
2018-05-31T08:58:39.462Z,97736
2018-05-31T09:01:08.879Z,97732
2018-05-31T09:03:38.285Z,97737
2018-05-31T09:06:07.534Z,97734
2018-05-31T09:08:36.876Z,97739
2018-05-31T09:11:06.187Z,97737
2018-05-31T09:13:36.310Z,97727
2018-05-31T09:16:06.432Z,97725
2018-05-31T09:18:36.494Z,97723
2018-05-31T09:21:05.849Z,97721
2018-05-31T09:23:35.097Z,97722
2018-05-31T09:26:04.411Z,97718
2018-05-31T09:28:33.767Z,97714
2018-05-31T09:31:03.154Z,97713
2018-05-31T09:33:33.278Z,97707
2018-05-31T09:36:03.342Z,97707
2018-05-31T09:38:32.698Z,97705
2018-05-31T09:41:02.793Z,97705
2018-05-31T09:43:32.123Z,97698
2018-05-31T09:46:02.241Z,97694
2018-05-31T09:48:32.360Z,97692
2018-05-31T09:51:02.482Z,97693
2018-05-31T09:53:31.884Z,97690
2018-05-31T09:56:01.187Z,97682
2018-05-31T09:58:31.305Z,97680
2018-05-31T10:01:00.608Z,97680
2018-05-31T10:03:30.011Z,97683
2018-05-31T10:06:00.131Z,97683
2018-05-31T10:08:29.535Z,97680
2018-05-31T10:11:00.372Z,97676
2018-05-31T10:13:30.486Z,97670
2018-05-31T10:15:59.801Z,97671
2018-05-31T10:18:29.914Z,97674
2018-05-31T10:21:00.039Z,97670
2018-05-31T10:23:29.344Z,97667
2018-05-31T10:25:58.743Z,97669
2018-05-31T10:28:28.860Z,97668
2018-05-31T10:30:58.980Z,97670
2018-05-31T10:33:28.384Z,97672
2018-05-31T10:35:58.506Z,97666
2018-05-31T10:38:27.871Z,97662
2018-05-31T10:40:57.210Z,97657
2018-05-31T10:43:26.509Z,97664
2018-05-31T10:45:57.343Z,97656
2018-05-31T10:48:28.185Z,97650
2018-05-31T10:50:57.575Z,97652
2018-05-31T10:53:26.839Z,97651
2018-05-31T10:55:56.133Z,97648
2018-05-31T10:58:25.499Z,97656
2018-05-31T11:00:55.612Z,97649
2018-05-31T11:03:25.679Z,97647
2018-05-31T11:05:55.019Z,97639
2018-05-31T11:08:24.435Z,97638
2018-05-31T11:10:53.726Z,97634
2018-05-31T11:13:23.041Z,97635
2018-05-31T11:15:52.445Z,97633
2018-05-31T11:18:21.849Z,97628
2018-05-31T11:20:51.150Z,97620
2018-05-31T11:23:21.255Z,97619
2018-05-31T11:25:50.571Z,97620
2018-05-31T11:28:20.693Z,97613
2018-05-31T11:30:50.918Z,97613
2018-05-31T11:33:20.320Z,97600
2018-05-31T11:35:49.721Z,97602
2018-05-31T11:38:19.686Z,97597
2018-05-31T11:40:49.040Z,97597
2018-05-31T11:43:19.880Z,97594
2018-05-31T11:45:49.224Z,97589
2018-05-31T11:48:18.480Z,97593
2018-05-31T11:50:48.605Z,97585
2018-05-31T11:53:17.903Z,97583
2018-05-31T11:55:47.306Z,97583
2018-05-31T11:58:16.553Z,97575
2018-05-31T12:00:45.908Z,97576
2018-05-31T12:03:15.311Z,97574
2018-05-31T12:05:44.602Z,97570
2018-05-31T12:08:13.966Z,97567
2018-05-31T12:10:43.323Z,97566
2018-05-31T12:13:13.422Z,97570
2018-05-31T12:15:42.739Z,97567
2018-05-31T12:18:12.806Z,97564
2018-05-31T12:20:42.147Z,97561
2018-05-31T12:23:11.463Z,97561
2018-05-31T12:25:40.867Z,97551
2018-05-31T12:28:10.167Z,97550
2018-05-31T12:30:39.459Z,97555
2018-05-31T12:33:08.774Z,97564
2018-05-31T12:35:38.889Z,97558
2018-05-31T12:38:08.181Z,97553
2018-05-31T12:40:37.495Z,97550
2018-05-31T12:43:07.662Z,97545
2018-05-31T12:45:37.015Z,97546
2018-05-31T12:48:07.136Z,97545
2018-05-31T12:50:36.438Z,97539
2018-05-31T12:53:05.885Z,97535
2018-05-31T12:55:35.189Z,97534
2018-05-31T12:58:04.533Z,97523
2018-05-31T13:00:33.847Z,97519
2018-05-31T13:03:03.246Z,97514
2018-05-31T13:05:32.540Z,97512
2018-05-31T13:08:01.847Z,97510
2018-05-31T13:10:31.154Z,97516
2018-05-31T13:13:00.454Z,97518
2018-05-31T13:15:29.800Z,97511
2018-05-31T13:17:59.160Z,97509
2018-05-31T13:20:28.551Z,97510
2018-05-31T13:22:57.865Z,97510
2018-05-31T13:25:27.166Z,97501
2018-05-31T13:27:56.473Z,97499
2018-05-31T13:30:25.869Z,97495
2018-05-31T13:32:55.173Z,97490
2018-05-31T13:35:24.473Z,97489
2018-05-31T13:37:53.775Z,97488
2018-05-31T13:40:23.074Z,97489
2018-05-31T13:42:52.370Z,97490
2018-05-31T13:45:23.213Z,97490
2018-05-31T13:47:52.601Z,97496
2018-05-31T13:50:21.920Z,97493
2018-05-31T13:52:51.220Z,97490
2018-05-31T13:55:20.521Z,97486
2018-05-31T13:57:50.585Z,97482
2018-05-31T14:00:19.932Z,97484
2018-05-31T14:02:49.249Z,97483
2018-05-31T14:05:19.365Z,97481
2018-05-31T14:07:48.768Z,97483
2018-05-31T14:10:18.894Z,97479
2018-05-31T14:12:49.009Z,97478
2018-05-31T14:15:18.416Z,97483
2018-05-31T14:17:47.819Z,97482
2018-05-31T14:20:17.222Z,97483
2018-05-31T14:22:47.341Z,97478
2018-05-31T14:25:18.164Z,97473
2018-05-31T14:27:47.493Z,97476
2018-05-31T14:30:17.600Z,97478
2018-05-31T14:32:46.888Z,97462
2018-05-31T14:35:16.260Z,97473
2018-05-31T14:37:45.595Z,97462
2018-05-31T14:40:15.009Z,97464
2018-05-31T14:42:44.311Z,97465
2018-05-31T14:45:13.717Z,97466
2018-05-31T14:47:43.834Z,97456
2018-05-31T14:50:13.238Z,97458
2018-05-31T14:52:42.539Z,97449
2018-05-31T14:55:13.376Z,97447
2018-05-31T14:57:43.438Z,97444
2018-05-31T15:00:12.798Z,97446
2018-05-31T15:02:42.917Z,97461
2018-05-31T15:05:12.218Z,97469
2018-05-31T15:07:41.623Z,97478
2018-05-31T15:10:10.924Z,97476
2018-05-31T15:12:40.226Z,97486
2018-05-31T15:15:09.531Z,97488
2018-05-31T15:17:39.649Z,97483
2018-05-31T15:20:09.056Z,97475
2018-05-31T15:22:39.172Z,97469
2018-05-31T15:25:08.575Z,97458
2018-05-31T15:27:37.979Z,97457
2018-05-31T15:30:07.377Z,97467
2018-05-31T15:32:36.684Z,97467
2018-05-31T15:35:06.088Z,97471
2018-05-31T15:37:36.207Z,97476
2018-05-31T15:40:05.615Z,97475
2018-05-31T15:42:35.937Z,97472
2018-05-31T15:45:06.046Z,97471
2018-05-31T15:47:35.362Z,97464
2018-05-31T15:50:04.753Z,97461
2018-05-31T15:52:34.105Z,97458
2018-05-31T15:55:04.388Z,97455
2018-05-31T15:57:33.689Z,97452
2018-05-31T16:00:03.093Z,97453
2018-05-31T16:02:32.382Z,97454
2018-05-31T16:05:01.798Z,97457
2018-05-31T16:07:31.102Z,97455
2018-05-31T16:10:00.503Z,97456
2018-05-31T16:12:29.795Z,97451
2018-05-31T16:14:59.211Z,97455
2018-05-31T16:17:29.326Z,97447
2018-05-31T16:19:58.988Z,97447
2018-05-31T16:22:28.441Z,97447
2018-05-31T16:24:57.748Z,97445
2018-05-31T16:27:27.352Z,97453
2018-05-31T16:29:56.756Z,97455
2018-05-31T16:32:26.160Z,97450
2018-05-31T16:34:55.464Z,97444
2018-05-31T16:37:25.588Z,97438
2018-05-31T16:39:55.692Z,97436
2018-05-31T16:42:25.009Z,97436
2018-05-31T16:44:55.126Z,97455
2018-05-31T16:47:25.245Z,97480
2018-05-31T16:49:54.549Z,97497
2018-05-31T16:52:23.950Z,97509
2018-05-31T16:54:53.238Z,97512
2018-05-31T16:57:22.652Z,97504
2018-05-31T16:59:52.769Z,97503
2018-05-31T17:02:22.177Z,97489
2018-05-31T17:04:51.583Z,97494
2018-05-31T17:07:21.702Z,97507
2018-05-31T17:09:51.011Z,97523
2018-05-31T17:12:21.226Z,97538
2018-05-31T17:14:50.646Z,97544
2018-05-31T17:17:20.032Z,97559
2018-05-31T17:19:49.435Z,97562
2018-05-31T17:22:18.738Z,97566
2018-05-31T17:24:48.039Z,97562
2018-05-31T17:27:17.343Z,97573
2018-05-31T17:29:47.460Z,97590
2018-05-31T17:32:16.760Z,97599
2018-05-31T17:34:46.882Z,97600
2018-05-31T17:37:17.002Z,97591
2018-05-31T17:39:46.411Z,97580
2018-05-31T17:42:16.526Z,97585
2018-05-31T17:44:46.603Z,97579
2018-05-31T17:47:15.948Z,97575
2018-05-31T17:49:45.249Z,97571
2018-05-31T17:52:14.550Z,97569
2018-05-31T17:54:43.853Z,97581
2018-05-31T17:57:13.153Z,97594
2018-05-31T17:59:42.505Z,97595
2018-05-31T18:02:11.857Z,97595
2018-05-31T18:04:41.152Z,97595
2018-05-31T18:07:10.444Z,97598
2018-05-31T18:09:39.760Z,97600
2018-05-31T18:12:09.062Z,97601
2018-05-31T18:14:38.370Z,97605
2018-05-31T18:17:08.482Z,97604
2018-05-31T18:19:37.773Z,97610
2018-05-31T18:22:07.085Z,97613
2018-05-31T18:24:36.479Z,97624
2018-05-31T18:27:05.893Z,97626
2018-05-31T18:29:35.241Z,97630
2018-05-31T18:32:04.597Z,97628
2018-05-31T18:34:33.892Z,97627
2018-05-31T18:37:03.303Z,97631
2018-05-31T18:39:33.423Z,97643
2018-05-31T18:42:02.826Z,97655
2018-05-31T18:44:32.134Z,97670
2018-05-31T18:47:02.248Z,97681
2018-05-31T18:49:31.653Z,97688
2018-05-31T18:52:01.057Z,97687
2018-05-31T18:54:30.443Z,97686
2018-05-31T18:56:59.860Z,97691
2018-05-31T18:59:29.286Z,97693
2018-05-31T19:01:59.390Z,97690
2018-05-31T19:04:28.681Z,97681
2018-05-31T19:06:58.152Z,97669
2018-05-31T19:09:33.026Z,97663
2018-05-31T19:12:02.327Z,97664
2018-05-31T19:14:32.652Z,97669
2018-05-31T19:17:02.063Z,97675
2018-05-31T19:19:37.676Z,97674
2018-05-31T19:22:07.109Z,97676
2018-05-31T19:24:42.043Z,97680
2018-05-31T19:27:11.444Z,97681
2018-05-31T19:29:40.849Z,97681
2018-05-31T19:32:10.288Z,97682
2018-05-31T19:34:39.670Z,97684
2018-05-31T19:37:13.658Z,97689
2018-05-31T19:39:42.987Z,97693
2018-05-31T19:42:17.973Z,97699
2018-05-31T19:44:47.303Z,97692
2018-05-31T19:47:16.596Z,97694
2018-05-31T19:49:46.013Z,97686
2018-05-31T19:52:20.887Z,97683
2018-05-31T19:54:50.250Z,97680
2018-05-31T19:57:20.367Z,97672
2018-05-31T20:02:54.999Z,97669
2018-05-31T20:05:24.315Z,97668
2018-05-31T20:07:53.616Z,97667
2018-05-31T20:10:23.020Z,97660
2018-05-31T20:12:57.237Z,97660
2018-05-31T20:15:26.627Z,97655
2018-05-31T20:17:56.043Z,97655
2018-05-31T20:20:25.452Z,97649
2018-05-31T20:22:54.850Z,97650
2018-05-31T20:25:24.139Z,97661
2018-05-31T20:27:53.453Z,97661
2018-05-31T20:30:22.959Z,97675
2018-05-31T20:32:53.084Z,97679
2018-05-31T20:35:23.202Z,97681
2018-05-31T20:37:52.440Z,97694
2018-05-31T20:40:21.803Z,97697
2018-05-31T20:42:51.206Z,97707
2018-05-31T20:45:20.489Z,97724
2018-05-31T20:47:49.815Z,97723
2018-05-31T20:50:19.928Z,97739
2018-05-31T20:52:49.339Z,97756
2018-05-31T20:55:19.454Z,97768
2018-05-31T20:57:48.855Z,97781
2018-05-31T21:00:18.160Z,97786
2018-05-31T21:02:47.563Z,97792
2018-05-31T21:05:16.864Z,97791
2018-05-31T21:07:46.163Z,97790
2018-05-31T21:10:15.567Z,97797
2018-05-31T21:12:44.868Z,97793
2018-05-31T21:15:14.170Z,97797
2018-05-31T21:17:43.463Z,97796
2018-05-31T21:20:12.758Z,97799
2018-05-31T21:22:42.078Z,97795
2018-05-31T21:25:12.195Z,97792
2018-05-31T21:27:41.598Z,97789
2018-05-31T21:30:11.719Z,97783
2018-05-31T21:32:41.123Z,97787
2018-05-31T21:35:10.427Z,97787
2018-05-31T21:37:39.829Z,97784
2018-05-31T21:40:09.888Z,97787
2018-05-31T21:42:39.250Z,97777
2018-05-31T21:45:09.363Z,97774
2018-05-31T21:47:38.676Z,97776
2018-05-31T21:50:08.738Z,97786
2018-05-31T21:52:38.104Z,97791
2018-05-31T21:55:07.497Z,97787
2018-05-31T21:57:37.719Z,97784
2018-05-31T22:00:07.225Z,97773
2018-05-31T22:02:36.632Z,97769
2018-05-31T22:05:06.035Z,97762
2018-05-31T22:07:35.332Z,97754
2018-05-31T22:10:04.688Z,97749
2018-05-31T22:12:34.082Z,97747
2018-05-31T22:15:03.441Z,97733
2018-05-31T22:17:32.844Z,97729
2018-05-31T22:20:03.072Z,97721
2018-05-31T22:22:33.134Z,97709
2018-05-31T22:25:02.486Z,97708
2018-05-31T22:27:31.878Z,97703
2018-05-31T22:30:01.194Z,97697
2018-05-31T22:32:30.484Z,97680
2018-05-31T22:34:59.902Z,97681
2018-05-31T22:37:29.199Z,97680
2018-05-31T22:39:58.501Z,97678
2018-05-31T22:42:27.801Z,97678
2018-05-31T22:44:57.208Z,97679
2018-05-31T22:47:27.326Z,97682
2018-05-31T22:49:56.718Z,97678
2018-05-31T22:52:26.032Z,97675
2018-05-31T22:54:55.436Z,97670
2018-05-31T22:57:24.736Z,97658
2018-05-31T22:59:54.032Z,97652
2018-05-31T23:02:23.344Z,97661
2018-05-31T23:04:53.459Z,97661
2018-05-31T23:07:22.760Z,97654
2018-05-31T23:09:52.884Z,97649
2018-05-31T23:12:22.282Z,97641
2018-05-31T23:14:53.122Z,97642
2018-05-31T23:17:22.523Z,97635
2018-05-31T23:19:51.929Z,97633
2018-05-31T23:22:22.049Z,97629
2018-05-31T23:24:51.452Z,97625
2018-05-31T23:27:21.675Z,97625
2018-05-31T23:29:51.793Z,97628
2018-05-31T23:32:21.202Z,97632
2018-05-31T23:34:51.262Z,97626
2018-05-31T23:37:20.518Z,97625
2018-05-31T23:39:50.604Z,97625
2018-05-31T23:42:19.880Z,97627
2018-05-31T23:44:49.186Z,97632
2018-05-31T23:47:18.426Z,97630
2018-05-31T23:49:47.740Z,97625
2018-05-31T23:52:17.041Z,97624
2018-05-31T23:54:47.151Z,97634
2018-05-31T23:57:16.463Z,97643
2018-05-31T23:59:46.584Z,97647
